createdAt,value
2022-12-12T00:01:04.756Z,0.78
2022-12-12T00:01:57.136Z,0.76
2022-12-12T00:02:57.504Z,0.74
2022-12-12T00:03:57.465Z,0.77
2022-12-12T00:04:57.156Z,0.76
2022-12-12T00:05:57.121Z,0.78
2022-12-12T00:06:57.133Z,0.74
2022-12-12T00:07:57.304Z,0.81
2022-12-12T00:08:57.170Z,0.82
2022-12-12T00:09:57.223Z,0.74
2022-12-12T00:10:57.134Z,0.82
2022-12-12T00:12:00.188Z,0.73
2022-12-12T00:12:57.154Z,0.76
2022-12-12T00:13:57.196Z,0.64
2022-12-12T00:14:57.128Z,0.76
2022-12-12T00:15:57.337Z,0.74
2022-12-12T00:16:57.203Z,0.67
2022-12-12T00:17:57.223Z,0.59
2022-12-12T00:18:57.177Z,0.63
2022-12-12T00:19:57.151Z,0.59
2022-12-12T00:20:57.208Z,0.58
2022-12-12T00:21:57.158Z,0.7
2022-12-12T00:23:00.255Z,0.76
2022-12-12T00:23:57.240Z,0.78
2022-12-12T00:24:57.165Z,0.77
2022-12-12T00:25:57.158Z,0.78
2022-12-12T00:26:57.186Z,0.74
2022-12-12T00:28:00.231Z,0.7
2022-12-12T00:28:57.187Z,0.77
2022-12-12T00:29:57.201Z,0.78
2022-12-12T00:30:57.454Z,0.73
2022-12-12T00:31:57.184Z,0.74
2022-12-12T00:32:57.177Z,0.85
2022-12-12T00:34:00.329Z,0.7
2022-12-12T00:34:57.180Z,0.77
2022-12-12T00:35:57.186Z,0.74
2022-12-12T00:36:57.217Z,0.63
2022-12-12T00:37:57.199Z,0.7
2022-12-12T00:38:58.463Z,0.78
2022-12-12T00:39:57.199Z,0.73
2022-12-12T00:40:57.198Z,0.74
2022-12-12T00:41:57.190Z,0.68
2022-12-12T00:42:57.227Z,0.73
2022-12-12T00:43:57.232Z,0.84
2022-12-12T00:45:00.279Z,0.66
2022-12-12T00:45:57.236Z,0.51
2022-12-12T00:46:57.289Z,0.55
2022-12-12T00:47:57.209Z,0.45
2022-12-12T00:48:57.232Z,0.47
2022-12-12T00:50:00.331Z,0.56
2022-12-12T00:50:57.200Z,0.49
2022-12-12T00:51:57.229Z,0.56
2022-12-12T00:52:57.454Z,0.61
2022-12-12T00:53:57.238Z,0.59
2022-12-12T00:54:57.215Z,0.51
2022-12-12T00:56:00.264Z,0.64
2022-12-12T00:56:57.227Z,0.7
2022-12-12T00:57:57.213Z,0.71
2022-12-12T00:58:57.267Z,0.56
2022-12-12T00:59:57.206Z,0.61
2022-12-12T01:01:00.341Z,0.49
2022-12-12T01:01:57.369Z,0.56
2022-12-12T01:02:57.537Z,0.55
2022-12-12T01:03:57.257Z,0.58
2022-12-12T01:04:57.235Z,0.56
2022-12-12T01:05:57.239Z,0.64
2022-12-12T01:06:57.247Z,0.7
2022-12-12T01:07:57.416Z,0.73
2022-12-12T01:08:57.288Z,0.59
2022-12-12T01:09:57.296Z,0.52
2022-12-12T01:10:57.218Z,0.55
2022-12-12T01:12:00.376Z,0.63
2022-12-12T01:12:57.260Z,0.67
2022-12-12T01:13:57.273Z,0.63
2022-12-12T01:14:57.273Z,0.67
2022-12-12T01:15:57.484Z,0.59
2022-12-12T01:16:57.282Z,0.51
2022-12-12T01:17:57.262Z,0.63
2022-12-12T01:18:57.326Z,0.59
2022-12-12T01:19:57.277Z,0.67
2022-12-12T01:20:57.255Z,0.7
2022-12-12T01:21:57.259Z,0.74
2022-12-12T01:22:57.234Z,0.66
2022-12-12T01:23:57.272Z,0.63
2022-12-12T01:24:57.292Z,0.64
2022-12-12T01:25:57.275Z,0.61
2022-12-12T01:26:57.262Z,0.77
2022-12-12T01:27:57.280Z,0.74
2022-12-12T01:28:57.266Z,0.7
2022-12-12T01:29:57.268Z,0.52
2022-12-12T01:30:57.398Z,0.59
2022-12-12T01:31:57.270Z,0.63
2022-12-12T01:32:57.288Z,0.64
2022-12-12T01:33:57.320Z,0.77
2022-12-12T01:34:57.254Z,0.71
2022-12-12T01:35:57.275Z,0.7
2022-12-12T01:36:57.283Z,0.78
2022-12-12T01:37:57.275Z,0.74
2022-12-12T01:38:57.358Z,0.76
2022-12-12T01:39:57.289Z,0.81
2022-12-12T01:40:57.307Z,0.7
2022-12-12T01:41:57.287Z,0.73
2022-12-12T01:42:57.294Z,0.74
2022-12-12T01:43:57.321Z,0.82
2022-12-12T01:44:57.276Z,0.82
2022-12-12T01:45:57.301Z,0.88
2022-12-12T01:46:57.475Z,0.82
2022-12-12T01:48:00.512Z,0.78
2022-12-12T01:48:57.345Z,0.77
2022-12-12T01:49:57.384Z,0.77
2022-12-12T01:50:57.299Z,0.71
2022-12-12T01:51:57.311Z,0.84
2022-12-12T01:52:57.307Z,0.81
2022-12-12T01:53:57.319Z,0.84
2022-12-12T01:55:00.422Z,0.78
2022-12-12T01:55:57.305Z,0.81
2022-12-12T01:56:57.408Z,0.77
2022-12-12T01:57:57.308Z,0.61
2022-12-12T01:58:57.567Z,0.67
2022-12-12T01:59:57.325Z,0.68
2022-12-12T02:00:57.535Z,0.77
2022-12-12T02:01:57.541Z,0.71
2022-12-12T02:02:57.345Z,0.71
2022-12-12T02:03:57.352Z,0.81
2022-12-12T02:04:58.370Z,0.81
2022-12-12T02:06:00.436Z,0.73
2022-12-12T02:06:57.336Z,0.73
2022-12-12T02:07:57.658Z,0.78
2022-12-12T02:08:57.352Z,0.76
2022-12-12T02:09:57.329Z,0.81
2022-12-12T02:10:57.342Z,0.67
2022-12-12T02:11:57.341Z,0.74
2022-12-12T02:12:57.346Z,0.78
2022-12-12T02:13:57.367Z,0.73
2022-12-12T02:14:57.329Z,0.78
2022-12-12T02:15:57.605Z,0.76
2022-12-12T02:17:00.367Z,0.78
2022-12-12T02:17:59.959Z,0.71
2022-12-12T02:18:57.380Z,0.81
2022-12-12T02:19:57.321Z,0.81
2022-12-12T02:20:57.384Z,0.74
2022-12-12T02:21:57.342Z,0.78
2022-12-12T02:22:57.353Z,0.73
2022-12-12T02:23:57.422Z,0.74
2022-12-12T02:24:57.358Z,0.77
2022-12-12T02:25:57.361Z,0.71
2022-12-12T02:26:57.361Z,0.78
2022-12-12T02:28:00.336Z,0.84
2022-12-12T02:28:57.449Z,0.77
2022-12-12T02:29:57.370Z,0.7
2022-12-12T02:30:57.413Z,0.78
2022-12-12T02:31:57.561Z,0.77
2022-12-12T02:32:57.379Z,0.78
2022-12-12T02:33:58.399Z,0.78
2022-12-12T02:34:57.429Z,0.73
2022-12-12T02:35:57.387Z,0.78
2022-12-12T02:36:57.411Z,0.77
2022-12-12T02:37:57.363Z,0.77
2022-12-12T02:39:00.667Z,0.68
2022-12-12T02:39:57.419Z,0.7
2022-12-12T02:40:57.427Z,0.76
2022-12-12T02:41:57.445Z,0.71
2022-12-12T02:42:57.415Z,0.71
2022-12-12T02:43:57.436Z,0.71
2022-12-12T02:44:57.433Z,0.59
2022-12-12T02:45:57.394Z,0.67
2022-12-12T02:46:57.627Z,0.56
2022-12-12T02:47:57.374Z,0.73
2022-12-12T02:48:57.437Z,0.7
2022-12-12T02:50:00.431Z,0.64
2022-12-12T02:50:57.552Z,0.68
2022-12-12T02:51:57.383Z,0.73
2022-12-12T02:52:57.421Z,0.67
2022-12-12T02:53:57.458Z,0.61
2022-12-12T02:55:00.465Z,0.59
2022-12-12T02:55:57.402Z,0.7
2022-12-12T02:56:57.400Z,0.66
2022-12-12T02:57:57.395Z,0.73
2022-12-12T02:58:57.417Z,0.61
2022-12-12T02:59:57.409Z,0.67
2022-12-12T03:01:00.412Z,0.73
2022-12-12T03:01:57.651Z,0.74
2022-12-12T03:02:57.420Z,0.67
2022-12-12T03:03:57.446Z,0.73
2022-12-12T03:04:57.419Z,0.73
2022-12-12T03:06:00.415Z,0.73
2022-12-12T03:06:57.485Z,0.71
2022-12-12T03:07:57.681Z,0.74
2022-12-12T03:08:57.470Z,0.78
2022-12-12T03:09:57.448Z,0.71
2022-12-12T03:10:57.430Z,0.64
2022-12-12T03:12:00.255Z,0.7
2022-12-12T03:12:57.423Z,0.61
2022-12-12T03:13:57.448Z,0.61
2022-12-12T03:14:57.429Z,0.55
2022-12-12T03:15:57.669Z,0.61
2022-12-12T03:17:00.520Z,0.61
2022-12-12T03:17:57.429Z,0.64
2022-12-12T03:18:59.710Z,0.61
2022-12-12T03:19:57.478Z,0.61
2022-12-12T03:20:57.442Z,0.7
2022-12-12T03:21:57.480Z,0.56
2022-12-12T03:22:57.484Z,0.49
2022-12-12T03:23:57.462Z,0.55
2022-12-12T03:24:57.481Z,0.59
2022-12-12T03:25:57.458Z,0.47
2022-12-12T03:26:57.439Z,0.61
2022-12-12T03:28:00.493Z,0.55
2022-12-12T03:28:57.475Z,0.61
2022-12-12T03:29:57.449Z,0.58
2022-12-12T03:30:57.437Z,0.66
2022-12-12T03:31:57.644Z,0.63
2022-12-12T03:32:57.490Z,0.59
2022-12-12T03:33:57.475Z,0.49
2022-12-12T03:34:57.444Z,0.44
2022-12-12T03:35:57.457Z,0.47
2022-12-12T03:36:57.443Z,0.51
2022-12-12T03:37:57.471Z,0.56
2022-12-12T03:39:00.543Z,0.49
2022-12-12T03:39:57.689Z,0.48
2022-12-12T03:40:57.561Z,0.56
2022-12-12T03:41:57.480Z,0.58
2022-12-12T03:42:57.466Z,0.61
2022-12-12T03:43:57.498Z,0.52
2022-12-12T03:44:57.479Z,0.56
2022-12-12T03:45:57.609Z,0.61
2022-12-12T03:46:57.476Z,0.56
2022-12-12T03:47:57.485Z,0.64
2022-12-12T03:48:57.512Z,0.64
2022-12-12T03:49:57.489Z,0.64
2022-12-12T03:50:57.489Z,0.59
2022-12-12T03:51:57.487Z,0.51
2022-12-12T03:52:57.514Z,0.47
2022-12-12T03:53:58.535Z,0.4
2022-12-12T03:54:57.516Z,0.39
2022-12-12T03:55:57.494Z,0.56
2022-12-12T03:56:57.525Z,0.58
2022-12-12T03:57:57.494Z,0.52
2022-12-12T03:58:57.490Z,0.52
2022-12-12T03:59:57.514Z,0.51
2022-12-12T04:00:57.894Z,0.44
2022-12-12T04:01:57.622Z,0.52
2022-12-12T04:02:57.510Z,0.58
2022-12-12T04:03:57.512Z,0.55
2022-12-12T04:04:57.533Z,0.44
2022-12-12T04:06:05.114Z,0.52
2022-12-12T04:06:57.505Z,0.58
2022-12-12T04:07:57.708Z,0.42
2022-12-12T04:08:57.502Z,0.45
2022-12-12T04:09:57.508Z,0.55
2022-12-12T04:10:57.533Z,0.61
2022-12-12T04:11:57.510Z,0.58
2022-12-12T04:12:57.553Z,0.58
2022-12-12T04:13:57.518Z,0.51
2022-12-12T04:14:57.536Z,0.56
2022-12-12T04:15:57.527Z,0.58
2022-12-12T04:17:06.729Z,0.59
2022-12-12T04:17:57.520Z,0.59
2022-12-12T04:18:57.535Z,0.51
2022-12-12T04:19:57.832Z,0.61
2022-12-12T04:20:57.580Z,0.64
2022-12-12T04:22:00.297Z,0.56
2022-12-12T04:22:57.517Z,0.52
2022-12-12T04:23:57.552Z,0.44
2022-12-12T04:24:57.548Z,0.45
2022-12-12T04:25:57.536Z,0.49
2022-12-12T04:26:57.544Z,0.55
2022-12-12T04:27:57.528Z,0.48
2022-12-12T04:28:57.743Z,0.51
2022-12-12T04:29:57.569Z,0.48
2022-12-12T04:30:57.539Z,0.51
2022-12-12T04:31:57.943Z,0.4
2022-12-12T04:33:00.308Z,0.49
2022-12-12T04:33:57.546Z,0.36
2022-12-12T04:34:57.559Z,0.47
2022-12-12T04:35:57.553Z,0.47
2022-12-12T04:36:58.591Z,0.59
2022-12-12T04:37:57.548Z,0.51
2022-12-12T04:38:57.566Z,0.36
2022-12-12T04:39:57.561Z,0.45
2022-12-12T04:40:57.552Z,0.42
2022-12-12T04:41:57.577Z,0.51
2022-12-12T04:42:57.577Z,0.45
2022-12-12T04:44:00.482Z,0.51
2022-12-12T04:44:57.545Z,0.42
2022-12-12T04:45:57.792Z,0.42
2022-12-12T04:46:57.553Z,0.31
2022-12-12T04:47:57.585Z,0.37
2022-12-12T04:48:58.541Z,0.23
2022-12-12T04:49:57.649Z,0.34
2022-12-12T04:50:57.579Z,0.37
2022-12-12T04:51:57.608Z,0.36
2022-12-12T04:52:57.618Z,0.33
2022-12-12T04:53:57.584Z,0.39
2022-12-12T04:55:00.715Z,0.34
2022-12-12T04:55:57.585Z,0.34
2022-12-12T04:56:57.610Z,0.3
2022-12-12T04:57:57.594Z,0.31
2022-12-12T04:58:57.607Z,0.33
2022-12-12T04:59:57.633Z,0.29
2022-12-12T05:00:57.765Z,0.31
2022-12-12T05:01:58.418Z,0.39
2022-12-12T05:02:57.577Z,0.37
2022-12-12T05:03:57.595Z,0.31
2022-12-12T05:04:57.640Z,0.34
2022-12-12T05:06:00.586Z,0.39
2022-12-12T05:06:57.609Z,0.4
2022-12-12T05:07:57.809Z,0.44
2022-12-12T05:08:57.623Z,0.34
2022-12-12T05:09:57.632Z,0.47
2022-12-12T05:10:57.600Z,0.48
2022-12-12T05:11:57.612Z,0.37
2022-12-12T05:12:57.606Z,0.33
2022-12-12T05:13:57.609Z,0.39
2022-12-12T05:14:57.657Z,0.29
2022-12-12T05:15:57.630Z,0.31
2022-12-12T05:17:00.894Z,0.31
2022-12-12T05:17:57.658Z,0.3
2022-12-12T05:18:57.616Z,0.23
2022-12-12T05:19:57.667Z,0.19
2022-12-12T05:20:57.610Z,0.3
2022-12-12T05:22:00.448Z,0.29
2022-12-12T05:22:57.614Z,0.31
2022-12-12T05:23:57.620Z,0.27
2022-12-12T05:24:57.688Z,0.27
2022-12-12T05:25:57.642Z,0.27
2022-12-12T05:26:57.611Z,0.3
2022-12-12T05:28:00.726Z,0.26
2022-12-12T05:29:01.098Z,0.24
2022-12-12T05:29:57.656Z,0.19
2022-12-12T05:30:57.799Z,0.2
2022-12-12T05:31:57.656Z,0.36
2022-12-12T05:33:00.728Z,0.27
2022-12-12T05:33:57.640Z,0.18
2022-12-12T05:34:57.655Z,0.18
2022-12-12T05:35:57.845Z,0.13
2022-12-12T05:36:57.644Z,0.13
2022-12-12T05:37:57.659Z,0.11
2022-12-12T05:39:00.718Z,0.26
2022-12-12T05:39:57.690Z,0.12
2022-12-12T05:40:57.684Z,0.12
2022-12-12T05:41:57.674Z,0.23
2022-12-12T05:42:57.652Z,0.11
2022-12-12T05:44:00.764Z,0.08
2022-12-12T05:44:57.720Z,0.08
2022-12-12T05:45:57.717Z,-0.02
2022-12-12T05:46:57.694Z,-0.02
2022-12-12T05:47:57.695Z,0.01
2022-12-12T05:48:57.664Z,-0.1
2022-12-12T05:49:57.694Z,-0.09
2022-12-12T05:50:57.705Z,-0.12
2022-12-12T05:51:57.665Z,-0.05
2022-12-12T05:52:57.673Z,-0.09
2022-12-12T05:53:57.677Z,-0.05
2022-12-12T05:54:59.682Z,-0.12
2022-12-12T05:55:57.681Z,-0.15
2022-12-12T05:56:57.727Z,-0.15
2022-12-12T05:57:57.678Z,-0.02
2022-12-12T05:58:57.663Z,-0.1
2022-12-12T05:59:57.700Z,-0.15
2022-12-12T06:01:03.903Z,-0.13
2022-12-12T06:01:57.694Z,-0.13
2022-12-12T06:02:57.651Z,-0.09
2022-12-12T06:03:57.846Z,-0.07
2022-12-12T06:04:57.732Z,-0.09
2022-12-12T06:06:00.473Z,-0.15
2022-12-12T06:06:57.703Z,-0.2
2022-12-12T06:07:57.887Z,-0.21
2022-12-12T06:08:57.704Z,-0.18
2022-12-12T06:09:57.735Z,-0.17
2022-12-12T06:10:57.697Z,-0.17
2022-12-12T06:11:57.709Z,-0.2
2022-12-12T06:12:57.732Z,-0.2
2022-12-12T06:13:57.729Z,-0.36
2022-12-12T06:14:57.731Z,-0.31
2022-12-12T06:15:57.868Z,-0.35
2022-12-12T06:16:57.709Z,-0.33
2022-12-12T06:17:57.767Z,-0.28
2022-12-12T06:18:57.786Z,-0.27
2022-12-12T06:19:57.764Z,-0.33
2022-12-12T06:20:57.745Z,-0.26
2022-12-12T06:21:57.781Z,-0.28
2022-12-12T06:22:58.699Z,-0.27
2022-12-12T06:23:57.720Z,-0.27
2022-12-12T06:24:57.848Z,-0.31
2022-12-12T06:25:57.709Z,-0.33
2022-12-12T06:26:57.711Z,-0.45
2022-12-12T06:27:59.148Z,-0.49
2022-12-12T06:28:57.747Z,-0.45
2022-12-12T06:29:58.330Z,-0.6
2022-12-12T06:30:57.849Z,-0.54
2022-12-12T06:31:57.714Z,-0.6
2022-12-12T06:32:57.736Z,-0.6
2022-12-12T06:33:57.741Z,-0.64
2022-12-12T06:34:57.786Z,-0.7
2022-12-12T06:35:57.780Z,-0.69
2022-12-12T06:36:57.759Z,-0.7
2022-12-12T06:37:57.747Z,-0.69
2022-12-12T06:38:57.739Z,-0.74
2022-12-12T06:39:57.777Z,-0.69
2022-12-12T06:40:57.736Z,-0.75
2022-12-12T06:41:57.754Z,-0.6
2022-12-12T06:42:57.745Z,-0.77
2022-12-12T06:43:57.870Z,-0.63
2022-12-12T06:44:57.789Z,-0.67
2022-12-12T06:45:58.038Z,-0.7
2022-12-12T06:46:57.764Z,-0.66
2022-12-12T06:47:57.764Z,-0.64
2022-12-12T06:49:00.819Z,-0.66
2022-12-12T06:49:57.797Z,-0.56
2022-12-12T06:50:57.789Z,-0.54
2022-12-12T06:51:57.665Z,-0.49
2022-12-12T06:52:57.600Z,-0.54
2022-12-12T06:53:57.775Z,-0.39
2022-12-12T06:54:57.951Z,-0.53
2022-12-12T06:55:57.770Z,-0.51
2022-12-12T06:56:57.764Z,-0.49
2022-12-12T06:57:57.751Z,-0.49
2022-12-12T06:58:57.778Z,-0.57
2022-12-12T07:00:00.677Z,-0.63
2022-12-12T07:00:57.920Z,-0.67
2022-12-12T07:01:57.995Z,-0.53
2022-12-12T07:02:57.942Z,-0.48
2022-12-12T07:03:57.769Z,-0.49
2022-12-12T07:04:57.824Z,-0.54
2022-12-12T07:05:57.784Z,-0.51
2022-12-12T07:06:57.807Z,-0.46
2022-12-12T07:07:58.062Z,-0.54
2022-12-12T07:08:57.780Z,-0.56
2022-12-12T07:09:57.825Z,-0.45
2022-12-12T07:11:00.599Z,-0.49
2022-12-12T07:11:57.792Z,-0.54
2022-12-12T07:13:02.024Z,-0.53
2022-12-12T07:13:57.791Z,-0.6
2022-12-12T07:14:57.795Z,-0.59
2022-12-12T07:15:57.949Z,-0.54
2022-12-12T07:16:57.842Z,-0.51
2022-12-12T07:17:57.798Z,-0.53
2022-12-12T07:18:57.821Z,-0.49
2022-12-12T07:19:57.815Z,-0.48
2022-12-12T07:20:57.783Z,-0.53
2022-12-12T07:22:09.594Z,-0.48
2022-12-12T07:22:57.816Z,-0.44
2022-12-12T07:23:57.856Z,-0.45
2022-12-12T07:24:57.853Z,-0.46
2022-12-12T07:25:58.847Z,-0.54
2022-12-12T07:26:57.812Z,-0.48
2022-12-12T07:27:57.829Z,-0.49
2022-12-12T07:28:57.806Z,-0.53
2022-12-12T07:29:57.849Z,-0.51
2022-12-12T07:30:57.962Z,-0.53
2022-12-12T07:31:57.826Z,-0.62
2022-12-12T07:33:00.918Z,-0.48
2022-12-12T07:33:57.829Z,-0.67
2022-12-12T07:34:57.812Z,-0.62
2022-12-12T07:35:57.823Z,-0.56
2022-12-12T07:37:05.622Z,-0.62
2022-12-12T07:37:57.867Z,-0.67
2022-12-12T07:38:57.872Z,-0.69
2022-12-12T07:39:57.891Z,-0.62
2022-12-12T07:40:57.838Z,-0.54
2022-12-12T07:41:57.888Z,-0.56
2022-12-12T07:42:57.736Z,-0.51
2022-12-12T07:44:00.866Z,-0.49
2022-12-12T07:44:57.837Z,-0.42
2022-12-12T07:45:57.862Z,-0.44
2022-12-12T07:46:58.174Z,-0.46
2022-12-12T07:47:57.867Z,-0.41
2022-12-12T07:49:00.990Z,-0.36
2022-12-12T07:49:57.851Z,-0.26
2022-12-12T07:50:57.860Z,-0.26
2022-12-12T07:51:57.863Z,-0.27
2022-12-12T07:52:57.872Z,-0.18
2022-12-12T07:53:57.894Z,-0.18
2022-12-12T07:55:00.617Z,0
2022-12-12T07:55:57.886Z,0.08
2022-12-12T07:56:57.879Z,0.08
2022-12-12T07:57:57.868Z,0.02
2022-12-12T07:58:57.925Z,-0.03
2022-12-12T08:00:00.627Z,0.01
2022-12-12T08:00:57.841Z,-0.02
2022-12-12T08:01:58.126Z,0.09
2022-12-12T08:02:57.864Z,0.01
2022-12-12T08:03:57.870Z,0.11
2022-12-12T08:04:58.104Z,0.18
2022-12-12T08:06:01.084Z,0.11
2022-12-12T08:07:10.727Z,0.19
2022-12-12T08:07:58.048Z,0.18
2022-12-12T08:08:57.873Z,0.23
2022-12-12T08:09:57.900Z,0.19
2022-12-12T08:10:59.732Z,0.16
2022-12-12T08:11:57.927Z,0.12
2022-12-12T08:12:57.891Z,0.26
2022-12-12T08:13:57.918Z,0.31
2022-12-12T08:14:57.882Z,0.29
2022-12-12T08:15:58.198Z,0.45
2022-12-12T08:17:01.077Z,0.55
2022-12-12T08:17:57.908Z,0.47
2022-12-12T08:18:57.889Z,0.42
2022-12-12T08:19:57.902Z,0.55
2022-12-12T08:20:57.971Z,0.34
2022-12-12T08:22:00.972Z,0.39
2022-12-12T08:22:57.881Z,0.45
2022-12-12T08:23:57.930Z,0.4
2022-12-12T08:24:57.892Z,0.55
2022-12-12T08:25:57.962Z,0.49
2022-12-12T08:26:57.902Z,0.45
2022-12-12T08:27:57.940Z,0.49
2022-12-12T08:28:57.926Z,0.52
2022-12-12T08:29:57.925Z,0.56
2022-12-12T08:30:58.096Z,0.61
2022-12-12T08:31:57.928Z,0.58
2022-12-12T08:33:08.014Z,0.52
2022-12-12T08:33:58.115Z,0.61
2022-12-12T08:34:57.923Z,0.68
2022-12-12T08:35:57.943Z,0.61
2022-12-12T08:36:57.976Z,0.55
2022-12-12T08:37:57.939Z,0.56
2022-12-12T08:38:57.961Z,0.59
2022-12-12T08:40:00.563Z,0.67
2022-12-12T08:40:57.945Z,0.78
2022-12-12T08:41:57.955Z,0.86
2022-12-12T08:42:57.944Z,0.84
2022-12-12T08:43:57.956Z,0.73
2022-12-12T08:44:58.961Z,0.84
2022-12-12T08:45:57.978Z,0.84
2022-12-12T08:46:58.148Z,0.96
2022-12-12T08:47:57.929Z,0.95
2022-12-12T08:48:57.932Z,0.99
2022-12-12T08:49:57.939Z,0.85
2022-12-12T08:50:57.969Z,0.85
2022-12-12T08:51:57.949Z,0.85
2022-12-12T08:52:57.983Z,0.95
2022-12-12T08:53:57.959Z,0.96
2022-12-12T08:54:57.966Z,1.04
2022-12-12T08:55:57.981Z,0.86
2022-12-12T08:56:57.805Z,0.86
2022-12-12T08:57:57.995Z,0.81
2022-12-12T08:58:57.948Z,0.84
2022-12-12T08:59:57.903Z,0.92
2022-12-12T09:00:58.020Z,0.91
2022-12-12T09:01:58.329Z,0.85
2022-12-12T09:02:58.432Z,0.82
2022-12-12T09:03:57.965Z,0.92
2022-12-12T09:04:57.954Z,0.94
2022-12-12T09:05:57.998Z,0.89
2022-12-12T09:06:57.963Z,0.91
2022-12-12T09:07:58.116Z,0.89
2022-12-12T09:08:58.044Z,0.86
2022-12-12T09:09:58.004Z,0.99
2022-12-12T09:10:58.085Z,1.03
2022-12-12T09:11:57.969Z,0.95
2022-12-12T09:12:57.979Z,0.96
2022-12-12T09:13:58.028Z,1.07
2022-12-12T09:14:58.009Z,1.06
2022-12-12T09:16:01.176Z,1.02
2022-12-12T09:16:57.975Z,1
2022-12-12T09:17:57.992Z,1.04
2022-12-12T09:18:57.985Z,1.03
2022-12-12T09:19:58.009Z,0.99
2022-12-12T09:20:57.973Z,0.99
2022-12-12T09:21:58.002Z,0.99
2022-12-12T09:22:57.991Z,1.07
2022-12-12T09:23:58.018Z,1.13
2022-12-12T09:24:58.059Z,1.12
2022-12-12T09:25:58.006Z,1.13
2022-12-12T09:27:01.080Z,1.16
2022-12-12T09:27:58.026Z,1.12
2022-12-12T09:28:58.008Z,1.06
2022-12-12T09:29:58.054Z,1.04
2022-12-12T09:30:58.006Z,1.06
2022-12-12T09:31:58.158Z,1.06
2022-12-12T09:32:58.010Z,1.02
2022-12-12T09:33:58.113Z,1.1
2022-12-12T09:34:58.023Z,1.2
2022-12-12T09:35:58.016Z,1.14
2022-12-12T09:36:58.018Z,1.13
2022-12-12T09:38:01.050Z,1.14
2022-12-12T09:38:58.024Z,1.21
2022-12-12T09:39:59.133Z,1.13
2022-12-12T09:40:58.047Z,1.06
2022-12-12T09:41:58.017Z,1.06
2022-12-12T09:42:58.037Z,0.96
2022-12-12T09:43:58.072Z,0.94
2022-12-12T09:44:58.053Z,1.02
2022-12-12T09:45:58.239Z,1.03
2022-12-12T09:46:58.032Z,0.96
2022-12-12T09:47:59.118Z,1.09
2022-12-12T09:49:01.091Z,0.96
2022-12-12T09:49:58.077Z,0.96
2022-12-12T09:50:58.090Z,1.02
2022-12-12T09:51:58.049Z,1.03
2022-12-12T09:52:58.048Z,1.09
2022-12-12T09:53:59.064Z,1.02
2022-12-12T09:54:58.040Z,1.06
2022-12-12T09:55:58.119Z,1.03
2022-12-12T09:56:58.076Z,0.99
2022-12-12T09:57:58.068Z,1
2022-12-12T09:59:01.741Z,1.03
2022-12-12T10:00:02.134Z,1.03
2022-12-12T10:00:58.227Z,1.04
2022-12-12T10:01:58.370Z,1.06
2022-12-12T10:02:58.050Z,1.09
2022-12-12T10:03:58.101Z,1.02
2022-12-12T10:04:58.115Z,1.14
2022-12-12T10:06:40.814Z,1.16
2022-12-12T10:06:58.053Z,1.16
2022-12-12T10:07:58.252Z,1.21
2022-12-12T10:08:58.117Z,1.3
2022-12-12T10:09:58.117Z,1.25
2022-12-12T10:11:01.018Z,1.32
2022-12-12T10:11:59.279Z,1.4
2022-12-12T10:12:58.094Z,1.45
2022-12-12T10:13:58.085Z,1.43
2022-12-12T10:14:58.088Z,1.5
2022-12-12T10:15:58.343Z,1.52
2022-12-12T10:17:05.787Z,1.61
2022-12-12T10:17:58.090Z,1.63
2022-12-12T10:18:58.094Z,1.66
2022-12-12T10:19:58.259Z,1.67
2022-12-12T10:20:58.118Z,1.81
2022-12-12T10:22:00.989Z,1.84
2022-12-12T10:22:58.112Z,1.82
2022-12-12T10:23:58.083Z,1.82
2022-12-12T10:24:58.084Z,1.93
2022-12-12T10:25:58.086Z,1.82
2022-12-12T10:26:58.807Z,1.88
2022-12-12T10:28:01.057Z,1.97
2022-12-12T10:28:58.145Z,2.03
2022-12-12T10:29:58.217Z,1.89
2022-12-12T10:30:58.103Z,2.01
2022-12-12T10:31:58.341Z,2.08
2022-12-12T10:33:01.180Z,2.16
2022-12-12T10:33:58.120Z,2.22
2022-12-12T10:34:59.963Z,2.14
2022-12-12T10:35:58.104Z,2.08
2022-12-12T10:36:58.952Z,2.03
2022-12-12T10:38:00.972Z,1.98
2022-12-12T10:38:58.571Z,1.86
2022-12-12T10:39:58.109Z,1.97
2022-12-12T10:40:58.119Z,2.1
2022-12-12T10:41:58.146Z,1.84
2022-12-12T10:42:58.129Z,1.82
2022-12-12T10:44:00.900Z,1.86
2022-12-12T10:44:58.159Z,1.89
2022-12-12T10:45:58.476Z,1.85
2022-12-12T10:46:58.446Z,1.85
2022-12-12T10:47:58.135Z,1.86
2022-12-12T10:49:01.156Z,1.88
2022-12-12T10:49:58.249Z,1.86
2022-12-12T10:50:58.162Z,1.95
2022-12-12T10:51:58.200Z,1.89
2022-12-12T10:52:58.124Z,2.03
2022-12-12T10:53:58.133Z,1.95
2022-12-12T10:55:01.190Z,1.79
2022-12-12T10:55:58.184Z,1.89
2022-12-12T10:56:58.221Z,1.84
2022-12-12T10:57:58.137Z,1.95
2022-12-12T10:58:58.155Z,1.93
2022-12-12T11:00:00.984Z,1.7
2022-12-12T11:00:58.292Z,1.67
2022-12-12T11:02:15.078Z,1.78
2022-12-12T11:03:04.715Z,1.86
2022-12-12T11:03:58.167Z,1.75
2022-12-12T11:04:58.199Z,1.88
2022-12-12T11:05:58.165Z,1.89
2022-12-12T11:06:58.519Z,1.84
2022-12-12T11:07:58.361Z,1.75
2022-12-12T11:08:58.157Z,1.61
2022-12-12T11:10:04.735Z,1.6
2022-12-12T11:10:58.168Z,1.53
2022-12-12T11:11:58.237Z,1.64
2022-12-12T11:12:58.200Z,1.63
2022-12-12T11:13:58.224Z,1.64
2022-12-12T11:14:58.174Z,1.7
2022-12-12T11:15:58.185Z,1.6
2022-12-12T11:16:58.313Z,1.56
2022-12-12T11:18:02.687Z,1.53
2022-12-12T11:18:58.186Z,1.61
2022-12-12T11:20:03.079Z,1.46
2022-12-12T11:20:58.387Z,1.58
2022-12-12T11:21:58.195Z,1.52
2022-12-12T11:22:58.229Z,1.6
2022-12-12T11:23:58.204Z,1.66
2022-12-12T11:24:58.205Z,1.6
2022-12-12T11:26:03.276Z,1.61
2022-12-12T11:28:00.977Z,1.66
2022-12-12T11:28:58.215Z,1.68
2022-12-12T11:29:58.201Z,1.7
2022-12-12T11:30:58.198Z,1.7
2022-12-12T11:31:58.576Z,1.79
2022-12-12T11:32:58.232Z,1.79
2022-12-12T11:34:02.229Z,1.81
2022-12-12T11:35:00.983Z,1.74
2022-12-12T11:36:00.703Z,1.67
2022-12-12T11:36:58.217Z,1.68
2022-12-12T11:37:58.226Z,1.75
2022-12-12T11:39:01.040Z,1.74
2022-12-12T11:40:00.651Z,1.64
2022-12-12T11:40:58.232Z,1.52
2022-12-12T11:41:58.226Z,1.49
2022-12-12T11:43:04.059Z,1.6
2022-12-12T11:44:01.337Z,1.63
2022-12-12T11:44:58.210Z,1.49
2022-12-12T11:45:58.421Z,1.7
2022-12-12T11:47:03.074Z,1.63
2022-12-12T11:48:01.340Z,1.63
2022-12-12T11:49:04.131Z,1.67
2022-12-12T11:49:58.240Z,1.63
2022-12-12T11:50:58.252Z,1.6
2022-12-12T11:52:00.687Z,1.61
2022-12-12T11:53:04.145Z,1.53
2022-12-12T11:54:01.310Z,1.57
2022-12-12T11:54:58.366Z,1.58
2022-12-12T11:55:58.265Z,1.63
2022-12-12T11:56:58.263Z,1.57
2022-12-12T11:58:06.173Z,1.61
2022-12-12T11:58:58.252Z,1.66
2022-12-12T12:00:58.287Z,1.6
2022-12-12T12:02:01.204Z,1.6
2022-12-12T12:02:58.474Z,1.61
2022-12-12T12:04:01.488Z,1.58
2022-12-12T12:05:03.096Z,1.63
2022-12-12T12:06:01.063Z,1.61
2022-12-12T12:06:58.399Z,1.66
2022-12-12T12:08:01.593Z,1.58
2022-12-12T12:09:01.512Z,1.66
2022-12-12T12:09:58.316Z,1.66
2022-12-12T12:11:06.228Z,1.45
2022-12-12T12:11:58.268Z,1.43
2022-12-12T12:13:01.335Z,1.45
2022-12-12T12:14:04.186Z,1.46
2022-12-12T12:15:01.007Z,1.48
2022-12-12T12:16:01.113Z,1.5
2022-12-12T12:17:01.743Z,1.43
2022-12-12T12:18:01.102Z,1.58
2022-12-12T12:19:01.279Z,1.56
2022-12-12T12:19:58.378Z,1.57
2022-12-12T12:20:58.372Z,1.49
2022-12-12T12:21:58.273Z,1.4
2022-12-12T12:22:58.295Z,1.43
2022-12-12T12:23:58.341Z,1.49
2022-12-12T12:25:01.303Z,1.53
2022-12-12T12:26:03.223Z,1.56
2022-12-12T12:27:01.265Z,1.6
2022-12-12T12:28:01.207Z,1.57
2022-12-12T12:28:58.826Z,1.52
2022-12-12T12:30:58.545Z,1.43
2022-12-12T12:31:58.391Z,1.42
2022-12-12T12:32:58.297Z,1.52
2022-12-12T12:33:58.332Z,1.46
2022-12-12T12:34:58.308Z,1.42
2022-12-12T12:36:01.284Z,1.43
2022-12-12T12:36:58.309Z,1.39
2022-12-12T12:38:01.284Z,1.42
2022-12-12T12:38:58.433Z,1.42
2022-12-12T12:39:58.390Z,1.49
2022-12-12T12:40:58.325Z,1.56
2022-12-12T12:41:58.318Z,1.53
2022-12-12T12:42:58.341Z,1.48
2022-12-12T12:43:58.436Z,1.57
2022-12-12T12:44:58.325Z,1.49
2022-12-12T12:45:58.461Z,1.58
2022-12-12T12:46:58.312Z,1.46
2022-12-12T12:47:58.344Z,1.5
2022-12-12T12:48:59.422Z,1.45
2022-12-12T12:49:58.356Z,1.49
2022-12-12T12:50:58.341Z,1.43
2022-12-12T12:51:58.351Z,1.5
2022-12-12T12:52:58.327Z,1.46
2022-12-12T12:54:01.148Z,1.58
2022-12-12T12:54:58.174Z,1.58
2022-12-12T12:55:58.355Z,1.53
2022-12-12T12:56:58.326Z,1.48
2022-12-12T12:57:58.361Z,1.52
2022-12-12T12:58:58.390Z,1.52
2022-12-12T13:00:01.139Z,1.45
2022-12-12T13:00:58.418Z,1.49
2022-12-12T13:01:58.523Z,1.46
2022-12-12T13:02:58.482Z,1.5
2022-12-12T13:03:58.358Z,1.5
2022-12-12T13:05:04.462Z,1.42
2022-12-12T13:05:58.341Z,1.46
2022-12-12T13:06:58.384Z,1.49
2022-12-12T13:07:58.521Z,1.48
2022-12-12T13:08:58.403Z,1.45
2022-12-12T13:09:58.335Z,1.56
2022-12-12T13:11:01.162Z,1.53
2022-12-12T13:11:58.411Z,1.45
2022-12-12T13:12:58.351Z,1.48
2022-12-12T13:13:58.388Z,1.42
2022-12-12T13:14:58.412Z,1.46
2022-12-12T13:16:01.694Z,1.45
2022-12-12T13:16:58.361Z,1.4
2022-12-12T13:17:58.361Z,1.57
2022-12-12T13:18:58.400Z,1.52
2022-12-12T13:19:58.363Z,1.48